createdAt,value
2018-05-23T00:00:17.388Z,17.86
2018-05-23T00:00:48.538Z,17.80
2018-05-23T00:01:19.688Z,17.84
2018-05-23T00:01:50.851Z,17.86
2018-05-23T00:02:22.012Z,17.87
2018-05-23T00:02:53.157Z,17.89
2018-05-23T00:03:24.296Z,17.89
2018-05-23T00:03:55.447Z,17.89
2018-05-23T00:04:26.603Z,17.86
2018-05-23T00:04:57.853Z,17.83
2018-05-23T00:05:29.066Z,17.84
2018-05-23T00:06:00.269Z,17.83
2018-05-23T00:06:31.454Z,17.82
2018-05-23T00:07:02.657Z,17.82
2018-05-23T00:07:33.910Z,17.83
2018-05-23T00:08:05.133Z,17.83
2018-05-23T00:08:36.357Z,17.84
2018-05-23T00:09:07.565Z,17.80
2018-05-23T00:09:38.769Z,17.77
2018-05-23T00:10:10.021Z,17.74
2018-05-23T00:10:41.224Z,17.72
2018-05-23T00:11:12.468Z,17.54
2018-05-23T00:11:43.719Z,17.66
2018-05-23T00:12:14.935Z,17.69
2018-05-23T00:12:46.149Z,17.69
2018-05-23T00:13:17.366Z,17.70
2018-05-23T00:13:48.579Z,17.69
2018-05-23T00:14:19.786Z,17.73
2018-05-23T00:14:50.993Z,17.75
2018-05-23T00:15:22.215Z,17.76
2018-05-23T00:15:53.485Z,17.77
2018-05-23T00:16:24.712Z,17.79
2018-05-23T00:16:55.926Z,17.79
2018-05-23T00:17:27.140Z,17.78
2018-05-23T00:17:58.358Z,17.80
2018-05-23T00:18:29.585Z,17.83
2018-05-23T00:19:00.797Z,17.84
2018-05-23T00:19:32.008Z,17.88
2018-05-23T00:20:03.238Z,17.91
2018-05-23T00:20:34.452Z,17.92
2018-05-23T00:21:05.707Z,17.97
2018-05-23T00:21:36.935Z,18.01
2018-05-23T00:22:08.150Z,18.06
2018-05-23T00:22:39.361Z,18.06
2018-05-23T00:23:10.569Z,18.09
2018-05-23T00:23:41.772Z,18.10
2018-05-23T00:24:13.035Z,18.11
2018-05-23T00:24:44.245Z,18.09
2018-05-23T00:25:15.469Z,18.09
2018-05-23T00:25:46.690Z,18.11
2018-05-23T00:26:17.957Z,18.12
2018-05-23T00:26:49.166Z,18.14
2018-05-23T00:27:20.383Z,18.15
2018-05-23T00:27:51.589Z,18.18
2018-05-23T00:28:22.817Z,18.20
2018-05-23T00:28:54.038Z,18.20
2018-05-23T00:29:25.307Z,18.21
2018-05-23T00:29:56.506Z,18.19
2018-05-23T00:30:27.723Z,18.18
2018-05-23T00:30:58.964Z,18.16
2018-05-23T00:31:30.278Z,18.14
2018-05-23T00:32:01.534Z,18.14
2018-05-23T00:32:32.770Z,18.11
2018-05-23T00:33:04.023Z,18.09
2018-05-23T00:33:35.250Z,18.08
2018-05-23T00:34:06.466Z,18.08
2018-05-23T00:34:37.703Z,18.08
2018-05-23T00:35:08.917Z,18.08
2018-05-23T00:35:40.140Z,18.06
2018-05-23T00:36:11.345Z,18.04
2018-05-23T00:36:42.553Z,18.04
2018-05-23T00:37:13.768Z,18.01
2018-05-23T00:37:45.034Z,18.03
2018-05-23T00:38:16.282Z,18.00
2018-05-23T00:38:47.502Z,17.96
2018-05-23T00:39:18.769Z,17.90
2018-05-23T00:39:49.976Z,17.87
2018-05-23T00:40:21.202Z,17.87
2018-05-23T00:40:52.447Z,17.87
2018-05-23T00:41:23.669Z,17.89
2018-05-23T00:41:54.881Z,17.91
2018-05-23T00:42:26.097Z,17.92
2018-05-23T00:42:57.354Z,17.94
2018-05-23T00:43:28.637Z,17.96
2018-05-23T00:43:59.844Z,17.97
2018-05-23T00:44:31.174Z,17.98
2018-05-23T00:45:02.385Z,17.97
2018-05-23T00:45:33.610Z,17.94
2018-05-23T00:46:04.842Z,17.94
2018-05-23T00:46:36.050Z,17.91
2018-05-23T00:47:07.270Z,17.89
2018-05-23T00:47:38.486Z,17.89
2018-05-23T00:48:09.739Z,17.89
2018-05-23T00:48:41.787Z,17.87
2018-05-23T00:49:12.998Z,17.87
2018-05-23T00:49:44.257Z,17.84
2018-05-23T00:50:15.477Z,17.82
2018-05-23T00:50:46.699Z,17.79
2018-05-23T00:51:17.924Z,17.77
2018-05-23T00:51:49.142Z,17.75
2018-05-23T00:52:20.364Z,17.74
2018-05-23T00:52:51.599Z,17.75
2018-05-23T00:53:23.888Z,17.75
2018-05-23T00:53:55.097Z,17.73
2018-05-23T00:54:26.305Z,17.70
2018-05-23T00:54:57.560Z,17.70
2018-05-23T00:55:28.789Z,17.68
2018-05-23T00:56:00.011Z,17.66
2018-05-23T00:56:31.216Z,17.64
2018-05-23T00:57:02.440Z,17.63
2018-05-23T00:57:33.663Z,17.63
2018-05-23T00:58:04.913Z,17.68
2018-05-23T00:58:36.141Z,17.70
2018-05-23T00:59:07.360Z,17.75
2018-05-23T00:59:38.577Z,17.76
2018-05-23T01:00:09.803Z,17.74
2018-05-23T01:00:41.033Z,17.71
2018-05-23T01:01:12.290Z,17.75
2018-05-23T01:01:43.513Z,17.73
2018-05-23T01:02:14.787Z,17.70
2018-05-23T01:02:46.004Z,17.68
2018-05-23T01:03:17.236Z,17.68
2018-05-23T01:03:48.444Z,17.68
2018-05-23T01:04:19.653Z,17.68
2018-05-23T01:04:50.871Z,17.67
2018-05-23T01:05:22.258Z,17.67
2018-05-23T01:05:53.508Z,17.68
2018-05-23T01:06:24.718Z,17.69
2018-05-23T01:06:55.975Z,17.70
2018-05-23T01:07:27.193Z,17.71
2018-05-23T01:07:58.463Z,17.70
2018-05-23T01:08:29.726Z,17.69
2018-05-23T01:09:00.941Z,17.66
2018-05-23T01:09:32.141Z,17.67
2018-05-23T01:10:03.353Z,17.66
2018-05-23T01:10:34.569Z,17.65
2018-05-23T01:11:05.797Z,17.63
2018-05-23T01:11:37.021Z,17.63
2018-05-23T01:12:08.245Z,17.59
2018-05-23T01:12:39.462Z,17.59
2018-05-23T01:13:10.771Z,17.58
2018-05-23T01:13:41.982Z,17.56
2018-05-23T01:14:13.209Z,17.58
2018-05-23T01:14:44.434Z,17.58
2018-05-23T01:15:15.653Z,17.63
2018-05-23T01:15:46.906Z,17.65
2018-05-23T01:16:18.153Z,17.67
2018-05-23T01:16:49.361Z,17.67
2018-05-23T01:17:20.589Z,17.66
2018-05-23T01:17:51.811Z,17.64
2018-05-23T01:18:23.028Z,17.62
2018-05-23T01:18:54.258Z,17.46
2018-05-23T01:19:25.495Z,17.63
2018-05-23T01:19:56.733Z,17.64
2018-05-23T01:20:27.957Z,17.65
2018-05-23T01:20:59.185Z,17.66
2018-05-23T01:21:30.454Z,17.69
2018-05-23T01:22:01.700Z,17.72
2018-05-23T01:22:32.919Z,17.74
2018-05-23T01:23:04.160Z,17.76
2018-05-23T01:23:35.398Z,17.79
2018-05-23T01:24:06.613Z,17.78
2018-05-23T01:24:37.829Z,17.76
2018-05-23T01:25:09.082Z,17.75
2018-05-23T01:25:40.318Z,17.73
2018-05-23T01:26:11.578Z,17.75
2018-05-23T01:26:42.793Z,17.74
2018-05-23T01:27:14.009Z,17.75
2018-05-23T01:27:45.272Z,17.75
2018-05-23T01:28:16.516Z,17.76
2018-05-23T01:28:47.725Z,17.75
2018-05-23T01:29:18.923Z,17.73
2018-05-23T01:29:50.141Z,17.74
2018-05-23T01:30:21.366Z,17.74
2018-05-23T01:30:52.653Z,17.74
2018-05-23T01:31:23.898Z,17.71
2018-05-23T01:31:55.117Z,17.69
2018-05-23T01:32:26.333Z,17.67
2018-05-23T01:32:57.583Z,17.64
2018-05-23T01:33:28.829Z,17.55
2018-05-23T01:34:00.049Z,17.51
2018-05-23T01:34:31.262Z,17.49
2018-05-23T01:35:02.470Z,17.49
2018-05-23T01:35:33.729Z,17.51
2018-05-23T01:36:04.979Z,17.55
2018-05-23T01:36:36.187Z,17.58
2018-05-23T01:37:07.394Z,17.61
2018-05-23T01:37:38.626Z,17.65
2018-05-23T01:38:09.845Z,17.66
2018-05-23T01:38:41.215Z,17.69
2018-05-23T01:39:12.397Z,17.69
2018-05-23T01:39:43.609Z,17.69
2018-05-23T01:40:14.840Z,17.69
2018-05-23T01:40:46.069Z,17.68
2018-05-23T01:41:17.360Z,17.66
2018-05-23T01:41:48.571Z,17.64
2018-05-23T01:42:19.798Z,17.64
2018-05-23T01:42:51.018Z,17.65
2018-05-23T01:43:22.233Z,17.67
2018-05-23T01:43:53.598Z,17.66
2018-05-23T01:44:24.850Z,17.65
2018-05-23T01:44:56.086Z,17.66
2018-05-23T01:45:27.353Z,17.66
2018-05-23T01:45:58.568Z,17.65
2018-05-23T01:46:29.785Z,17.66
2018-05-23T01:47:00.997Z,17.66
2018-05-23T01:47:32.218Z,17.61
2018-05-23T01:48:03.433Z,17.26
2018-05-23T01:48:34.887Z,17.58
2018-05-23T01:49:06.149Z,17.56
2018-05-23T01:49:37.422Z,17.53
2018-05-23T01:50:08.656Z,17.51
2018-05-23T01:50:39.900Z,17.50
2018-05-23T01:51:11.119Z,17.51
2018-05-23T01:51:42.359Z,17.48
2018-05-23T01:52:13.565Z,17.48
2018-05-23T01:52:44.776Z,17.48
2018-05-23T01:53:16.035Z,17.49
2018-05-23T01:53:47.252Z,17.50
2018-05-23T01:54:18.473Z,17.53
2018-05-23T01:54:49.688Z,17.53
2018-05-23T01:55:20.893Z,17.50
2018-05-23T01:55:52.101Z,17.48
2018-05-23T01:56:23.309Z,17.46
2018-05-23T01:56:54.541Z,17.46
2018-05-23T01:57:25.764Z,17.45
2018-05-23T01:57:57.032Z,17.44
2018-05-23T01:58:28.243Z,17.44
2018-05-23T01:58:59.451Z,17.42
2018-05-23T01:59:30.671Z,17.42
2018-05-23T02:00:01.892Z,17.42
2018-05-23T02:00:33.117Z,17.41
2018-05-23T02:01:04.370Z,17.41
2018-05-23T02:01:35.598Z,17.40
2018-05-23T02:02:06.809Z,17.40
2018-05-23T02:02:38.021Z,17.39
2018-05-23T02:03:09.278Z,17.40
2018-05-23T02:03:40.505Z,17.38
2018-05-23T02:04:11.737Z,17.37
2018-05-23T02:04:42.972Z,17.34
2018-05-23T02:05:14.198Z,17.33
2018-05-23T02:05:45.461Z,17.34
2018-05-23T02:06:16.693Z,17.34
2018-05-23T02:06:47.917Z,17.34
2018-05-23T02:07:19.133Z,17.35
2018-05-23T02:07:50.345Z,17.35
2018-05-23T02:08:21.652Z,17.35
2018-05-23T02:08:52.832Z,17.32
2018-05-23T02:09:24.057Z,17.35
2018-05-23T02:09:55.333Z,17.36
2018-05-23T02:10:26.562Z,17.36
2018-05-23T02:10:57.775Z,17.34
2018-05-23T02:11:28.989Z,17.31
2018-05-23T02:12:00.209Z,17.28
2018-05-23T02:12:31.427Z,17.26
2018-05-23T02:13:02.644Z,17.23
2018-05-23T02:13:33.854Z,17.18
2018-05-23T02:14:05.071Z,17.15
2018-05-23T02:14:36.332Z,17.12
2018-05-23T02:15:07.595Z,17.10
2018-05-23T02:15:38.805Z,17.07
2018-05-23T02:16:10.017Z,17.04
2018-05-23T02:16:41.218Z,17.01
2018-05-23T02:17:12.482Z,16.99
2018-05-23T02:17:43.727Z,16.96
2018-05-23T02:18:14.940Z,16.95
2018-05-23T02:18:46.152Z,16.92
2018-05-23T02:19:17.382Z,16.91
2018-05-23T02:19:48.605Z,16.89
2018-05-23T02:20:19.839Z,16.86
2018-05-23T02:20:51.049Z,16.81
2018-05-23T02:21:22.280Z,16.78
2018-05-23T02:21:53.500Z,16.76
2018-05-23T02:22:24.762Z,16.30
2018-05-23T02:22:56.008Z,16.72
2018-05-23T02:23:27.217Z,16.70
2018-05-23T02:23:58.433Z,16.68
2018-05-23T02:24:29.650Z,16.66
2018-05-23T02:25:00.887Z,16.66
2018-05-23T02:25:32.090Z,16.65
2018-05-23T02:26:03.336Z,16.67
2018-05-23T02:26:34.557Z,16.66
2018-05-23T02:27:05.843Z,16.66
2018-05-23T02:27:37.103Z,16.66
2018-05-23T02:28:08.304Z,16.67
2018-05-23T02:28:39.517Z,16.64
2018-05-23T02:29:10.728Z,16.65
2018-05-23T02:29:42.050Z,16.61
2018-05-23T02:30:13.267Z,16.56
2018-05-23T02:30:44.491Z,16.54
2018-05-23T02:31:15.719Z,16.53
2018-05-23T02:31:46.929Z,16.52
2018-05-23T02:32:18.184Z,16.51
2018-05-23T02:32:49.414Z,16.50
2018-05-23T02:33:20.630Z,16.47
2018-05-23T02:33:51.844Z,16.44
2018-05-23T02:34:23.073Z,16.41
2018-05-23T02:34:54.293Z,16.36
2018-05-23T02:35:25.589Z,16.30
2018-05-23T02:35:56.816Z,16.22
2018-05-23T02:36:28.037Z,16.16
2018-05-23T02:36:59.271Z,16.13
2018-05-23T02:37:30.490Z,16.11
2018-05-23T02:38:01.709Z,16.09
2018-05-23T02:38:32.924Z,16.05
2018-05-23T02:39:04.169Z,16.03
2018-05-23T02:39:35.401Z,15.98
2018-05-23T02:40:06.621Z,15.93
2018-05-23T02:40:37.842Z,15.89
2018-05-23T02:41:09.053Z,15.86
2018-05-23T02:41:40.279Z,15.83
2018-05-23T02:42:11.511Z,15.80
2018-05-23T02:42:42.734Z,15.77
2018-05-23T02:43:13.956Z,15.78
2018-05-23T02:43:45.218Z,15.79
2018-05-23T02:44:16.437Z,15.81
2018-05-23T02:44:47.714Z,15.82
2018-05-23T02:45:18.943Z,15.84
2018-05-23T02:45:50.153Z,15.86
2018-05-23T02:46:21.342Z,15.85
2018-05-23T02:46:52.553Z,15.85
2018-05-23T02:47:23.805Z,15.84
2018-05-23T02:47:55.062Z,15.84
2018-05-23T02:48:26.306Z,15.82
2018-05-23T02:48:57.521Z,15.80
2018-05-23T02:49:28.757Z,15.79
2018-05-23T02:50:00.029Z,15.81
2018-05-23T02:50:31.245Z,15.81
2018-05-23T02:51:02.457Z,15.79
2018-05-23T02:51:34.198Z,15.77
2018-05-23T02:52:05.437Z,15.77
2018-05-23T02:52:36.649Z,15.78
2018-05-23T02:53:07.866Z,15.79
2018-05-23T02:53:39.073Z,15.77
2018-05-23T02:54:10.285Z,15.76
2018-05-23T02:54:41.553Z,15.77
2018-05-23T02:55:12.806Z,15.79
2018-05-23T02:55:44.003Z,15.78
2018-05-23T02:56:15.194Z,15.41
2018-05-23T02:56:46.405Z,15.78
2018-05-23T02:57:17.677Z,15.78
2018-05-23T02:57:48.888Z,15.78
2018-05-23T02:58:20.117Z,15.77
2018-05-23T02:58:51.333Z,15.76
2018-05-23T02:59:22.592Z,15.76
2018-05-23T02:59:53.811Z,15.74
2018-05-23T03:00:26.137Z,15.75
2018-05-23T03:00:58.285Z,15.75
2018-05-23T03:01:29.538Z,15.74
2018-05-23T03:02:00.764Z,15.75
2018-05-23T03:02:31.965Z,15.75
2018-05-23T03:03:03.244Z,15.78
2018-05-23T03:03:34.446Z,15.81
2018-05-23T03:04:05.665Z,15.83
2018-05-23T03:04:36.909Z,15.84
2018-05-23T03:05:08.174Z,15.85
2018-05-23T03:05:39.390Z,15.88
2018-05-23T03:06:10.614Z,15.66
2018-05-23T03:06:41.849Z,15.95
2018-05-23T03:07:13.068Z,16.01
2018-05-23T03:07:44.293Z,16.06
2018-05-23T03:08:15.508Z,16.11
2018-05-23T03:08:46.716Z,16.15
2018-05-23T03:09:18.611Z,16.20
2018-05-23T03:09:49.826Z,16.26
2018-05-23T03:10:21.047Z,16.34
2018-05-23T03:10:52.253Z,16.41
2018-05-23T03:11:23.465Z,16.47
2018-05-23T03:11:54.689Z,16.56
2018-05-23T03:12:25.940Z,16.65
2018-05-23T03:12:57.157Z,16.73
2018-05-23T03:13:28.408Z,16.81
2018-05-23T03:13:59.625Z,16.87
2018-05-23T03:14:30.838Z,16.95
2018-05-23T03:15:02.072Z,16.99
2018-05-23T03:15:33.306Z,17.07
2018-05-23T03:16:04.525Z,17.13
2018-05-23T03:16:35.751Z,17.20
2018-05-23T03:17:06.993Z,17.27
2018-05-23T03:17:38.207Z,17.34
2018-05-23T03:18:09.427Z,17.42
2018-05-23T03:18:40.713Z,17.52
2018-05-23T03:19:11.935Z,17.61
2018-05-23T03:19:43.130Z,17.69
2018-05-23T03:20:14.365Z,17.76
2018-05-23T03:20:45.563Z,17.84
2018-05-23T03:21:16.840Z,17.93
2018-05-23T03:21:48.054Z,18.02
2018-05-23T03:22:19.282Z,18.11
2018-05-23T03:22:50.512Z,18.20
2018-05-23T03:23:21.728Z,18.27
2018-05-23T03:23:52.949Z,18.30
2018-05-23T03:24:24.178Z,18.38
2018-05-23T03:24:55.416Z,18.49
2018-05-23T03:25:26.657Z,18.59
2018-05-23T03:25:57.882Z,18.67
2018-05-23T03:26:29.142Z,18.76
2018-05-23T03:27:00.388Z,18.88
2018-05-23T03:27:32.349Z,19.01
2018-05-23T03:28:04.224Z,19.14
2018-05-23T03:28:35.434Z,19.26
2018-05-23T03:29:06.714Z,19.38
2018-05-23T03:29:37.931Z,19.46
2018-05-23T03:30:09.150Z,19.50
2018-05-23T03:30:40.363Z,19.56
2018-05-23T03:31:11.584Z,19.60
2018-05-23T03:31:43.947Z,19.63
2018-05-23T03:32:15.165Z,19.63
2018-05-23T03:32:46.374Z,19.68
2018-05-23T03:33:17.599Z,19.70
2018-05-23T03:33:48.824Z,19.72
2018-05-23T03:34:20.033Z,19.79
2018-05-23T03:34:51.248Z,19.86
2018-05-23T03:35:22.473Z,19.94
2018-05-23T03:35:53.775Z,20.01
2018-05-23T03:36:25.032Z,20.11
2018-05-23T03:36:56.347Z,20.19
2018-05-23T03:37:27.666Z,20.30
2018-05-23T03:37:58.896Z,20.35
2018-05-23T03:38:30.160Z,20.44
2018-05-23T03:39:01.399Z,20.51
2018-05-23T03:39:32.646Z,20.62
2018-05-23T03:40:03.871Z,20.74
2018-05-23T03:40:35.098Z,20.87
2018-05-23T03:41:06.375Z,21.01
2018-05-23T03:41:37.635Z,21.14
2018-05-23T03:42:08.881Z,21.27
2018-05-23T03:42:40.103Z,21.33
2018-05-23T03:43:11.402Z,21.40
2018-05-23T03:43:42.631Z,21.48
2018-05-23T03:44:13.835Z,21.39
2018-05-23T03:44:45.083Z,21.46
2018-05-23T03:45:16.327Z,21.57
2018-05-23T03:45:47.594Z,21.72
2018-05-23T03:46:18.938Z,21.85
2018-05-23T03:46:50.162Z,21.99
2018-05-23T03:47:21.453Z,22.12
2018-05-23T03:47:52.625Z,22.23
2018-05-23T03:48:23.851Z,22.37
2018-05-23T03:48:55.078Z,22.51
2018-05-23T03:49:26.304Z,22.55
2018-05-23T03:49:57.518Z,22.66
2018-05-23T03:50:28.737Z,22.78
2018-05-23T03:50:59.989Z,22.86
2018-05-23T03:51:31.228Z,22.95
2018-05-23T03:52:02.464Z,23.05
2018-05-23T03:52:33.713Z,23.09
2018-05-23T03:53:04.949Z,23.15
2018-05-23T03:53:36.189Z,23.24
2018-05-23T03:54:07.484Z,23.37
2018-05-23T03:54:38.720Z,23.46
2018-05-23T03:55:09.945Z,23.45
2018-05-23T03:55:41.169Z,23.43
2018-05-23T03:56:12.393Z,23.50
2018-05-23T03:56:43.631Z,23.62
2018-05-23T03:57:14.858Z,23.76
2018-05-23T03:57:46.119Z,23.85
2018-05-23T03:58:17.333Z,24.01
2018-05-23T03:58:48.557Z,24.09
2018-05-23T03:59:19.781Z,24.09
2018-05-23T03:59:51.014Z,23.99
2018-05-23T04:00:22.247Z,23.85
2018-05-23T04:00:53.484Z,23.77
2018-05-23T04:01:24.710Z,23.60
2018-05-23T04:01:55.926Z,23.43
2018-05-23T04:02:27.140Z,23.24
2018-05-23T04:02:58.414Z,23.06
2018-05-23T04:03:29.628Z,22.87
2018-05-23T04:04:00.880Z,22.70
2018-05-23T04:04:32.167Z,22.54
2018-05-23T04:05:03.409Z,22.42
2018-05-23T04:05:34.638Z,22.35
2018-05-23T04:06:05.831Z,22.36
2018-05-23T04:06:37.052Z,22.42
2018-05-23T04:07:08.260Z,22.53
2018-05-23T04:07:39.482Z,22.70
2018-05-23T04:08:10.745Z,22.93
2018-05-23T04:08:41.970Z,23.13
2018-05-23T04:09:13.193Z,23.27
2018-05-23T04:09:44.512Z,23.43
2018-05-23T04:10:15.729Z,23.52
2018-05-23T04:10:46.938Z,23.54
2018-05-23T04:11:18.145Z,23.59
2018-05-23T04:11:49.402Z,23.62
2018-05-23T04:12:20.646Z,23.60
2018-05-23T04:12:51.880Z,23.54
2018-05-23T04:13:23.100Z,23.45
2018-05-23T04:13:54.311Z,23.33
2018-05-23T04:14:26.487Z,23.21
2018-05-23T04:14:57.708Z,23.07
2018-05-23T04:15:28.994Z,22.97
2018-05-23T04:16:00.209Z,22.97
2018-05-23T04:16:31.418Z,23.01
2018-05-23T04:17:02.641Z,23.14
2018-05-23T04:17:33.852Z,23.38
2018-05-23T04:18:05.065Z,23.60
2018-05-23T04:18:36.285Z,23.74
2018-05-23T04:19:07.656Z,23.84
2018-05-23T04:19:38.882Z,23.93
2018-05-23T04:20:10.161Z,23.91
2018-05-23T04:20:41.382Z,23.87
2018-05-23T04:21:12.643Z,23.81
2018-05-23T04:21:44.012Z,23.73
2018-05-23T04:22:15.310Z,23.63
2018-05-23T04:22:46.480Z,23.63
2018-05-23T04:23:17.697Z,23.73
2018-05-23T04:23:48.917Z,23.94
2018-05-23T04:24:20.157Z,24.18
2018-05-23T04:24:51.478Z,24.46
2018-05-23T04:25:22.765Z,24.70
2018-05-23T04:25:53.980Z,24.88
2018-05-23T04:26:25.221Z,24.97
2018-05-23T04:26:56.457Z,24.97
2018-05-23T04:27:27.685Z,24.90
2018-05-23T04:27:59.694Z,24.78
2018-05-23T04:28:30.907Z,24.66
2018-05-23T04:29:02.121Z,24.58
2018-05-23T04:29:33.318Z,24.47
2018-05-23T04:30:04.549Z,24.34
2018-05-23T04:30:35.756Z,24.19
2018-05-23T04:31:07.000Z,24.06
2018-05-23T04:31:38.224Z,23.89
2018-05-23T04:32:09.436Z,23.77
2018-05-23T04:32:40.650Z,23.62
2018-05-23T04:33:11.873Z,23.42
2018-05-23T04:33:43.089Z,23.26
2018-05-23T04:34:14.316Z,23.18
2018-05-23T04:34:45.533Z,23.06
2018-05-23T04:35:16.756Z,22.92
2018-05-23T04:35:48.037Z,22.80
2018-05-23T04:36:19.294Z,22.63
2018-05-23T04:36:50.506Z,22.44
2018-05-23T04:37:21.761Z,22.37
2018-05-23T04:37:53.063Z,22.33
2018-05-23T04:38:24.243Z,22.29
2018-05-23T04:38:55.467Z,22.31
2018-05-23T04:39:26.780Z,22.28
2018-05-23T04:39:57.953Z,22.25
2018-05-23T04:40:29.181Z,22.19
2018-05-23T04:41:00.393Z,22.19
2018-05-23T04:41:31.638Z,22.19
2018-05-23T04:42:02.857Z,22.20
2018-05-23T04:42:34.123Z,22.24
2018-05-23T04:43:05.322Z,22.09
2018-05-23T04:43:36.549Z,22.20
2018-05-23T04:44:07.893Z,22.33
2018-05-23T04:44:39.117Z,22.49
2018-05-23T04:45:10.344Z,22.74
2018-05-23T04:45:41.566Z,23.03
2018-05-23T04:46:12.808Z,23.37
2018-05-23T04:46:44.074Z,23.63
2018-05-23T04:47:15.309Z,24.18
2018-05-23T04:47:46.609Z,24.44
2018-05-23T04:48:58.781Z,25.19
2018-05-23T04:49:29.997Z,25.27
2018-05-23T04:50:01.213Z,25.56
2018-05-23T04:50:32.423Z,25.74
2018-05-23T04:51:03.647Z,25.98
2018-05-23T04:51:34.873Z,26.21
2018-05-23T04:52:06.107Z,26.46
2018-05-23T04:52:37.328Z,26.72
2018-05-23T04:53:08.587Z,26.96
2018-05-23T04:53:39.805Z,27.15
2018-05-23T04:54:11.061Z,27.41
2018-05-23T04:54:42.293Z,27.56
2018-05-23T04:55:13.508Z,27.73
2018-05-23T04:55:44.722Z,27.92
2018-05-23T04:56:15.951Z,28.08
2018-05-23T04:56:47.177Z,28.22
2018-05-23T04:57:18.401Z,28.22
2018-05-23T04:57:49.617Z,28.26
2018-05-23T04:58:20.830Z,28.29
2018-05-23T04:58:52.055Z,28.36
2018-05-23T04:59:23.278Z,28.33
2018-05-23T04:59:54.497Z,28.40
2018-05-23T05:00:25.704Z,28.56
2018-05-23T05:00:56.929Z,28.67
2018-05-23T05:01:28.142Z,28.48
2018-05-23T05:01:59.375Z,28.54
2018-05-23T05:02:30.597Z,28.52
2018-05-23T05:03:01.828Z,28.80
2018-05-23T05:03:33.073Z,28.79
2018-05-23T05:04:04.284Z,28.81
2018-05-23T05:04:35.550Z,28.91
2018-05-23T05:05:06.798Z,29.06
2018-05-23T05:05:38.073Z,29.03
2018-05-23T05:06:09.297Z,29.08
2018-05-23T05:06:40.518Z,29.19
2018-05-23T05:07:11.781Z,29.35
2018-05-23T05:07:43.005Z,29.42
2018-05-23T05:08:14.233Z,29.49
2018-05-23T05:08:45.466Z,29.59
2018-05-23T05:09:16.687Z,29.60
2018-05-23T05:09:47.924Z,29.70
2018-05-23T05:10:19.140Z,29.65
2018-05-23T05:10:50.393Z,29.24
2018-05-23T05:11:21.609Z,29.08
2018-05-23T05:11:52.828Z,29.06
2018-05-23T05:12:24.049Z,29.08
2018-05-23T05:12:55.281Z,29.12
2018-05-23T05:13:26.500Z,29.26
2018-05-23T05:13:57.729Z,29.22
2018-05-23T05:14:28.975Z,29.43
2018-05-23T05:15:00.178Z,29.49
2018-05-23T05:15:31.409Z,29.65
2018-05-23T05:16:02.707Z,29.73
2018-05-23T05:16:34.481Z,29.74
2018-05-23T05:17:05.705Z,29.84
2018-05-23T05:17:36.913Z,29.87
2018-05-23T05:18:08.103Z,29.80
2018-05-23T05:18:39.311Z,29.82
2018-05-23T05:19:10.521Z,29.92
2018-05-23T05:19:41.751Z,29.88
2018-05-23T05:20:12.985Z,29.95
2018-05-23T05:20:44.205Z,29.94
2018-05-23T05:21:15.417Z,30.02
2018-05-23T05:21:46.686Z,30.17
2018-05-23T05:22:17.898Z,30.32
2018-05-23T05:22:49.105Z,30.43
2018-05-23T05:23:20.325Z,30.32
2018-05-23T05:23:51.545Z,30.20
2018-05-23T05:24:22.770Z,30.22
2018-05-23T05:24:54.051Z,30.08
2018-05-23T05:25:25.225Z,30.12
2018-05-23T05:25:56.440Z,30.13
2018-05-23T05:26:28.426Z,30.02
2018-05-23T05:26:59.720Z,29.79
2018-05-23T05:27:30.933Z,29.41
2018-05-23T05:28:02.145Z,29.12
2018-05-23T05:28:33.391Z,28.92
2018-05-23T05:29:04.646Z,28.71
2018-05-23T05:29:35.864Z,28.58
2018-05-23T05:30:07.072Z,28.59
2018-05-23T05:30:38.291Z,28.40
2018-05-23T05:31:09.545Z,28.42
2018-05-23T05:31:40.767Z,28.38
2018-05-23T05:32:12.049Z,28.22
2018-05-23T05:32:46.151Z,28.09
2018-05-23T05:33:17.363Z,27.77
2018-05-23T05:33:48.624Z,27.63
2018-05-23T05:34:19.851Z,27.54
2018-05-23T05:34:51.068Z,27.57
2018-05-23T05:35:22.277Z,27.67
2018-05-23T05:35:53.488Z,27.73
2018-05-23T05:36:24.747Z,27.76
2018-05-23T05:36:55.974Z,27.73
2018-05-23T05:37:27.246Z,27.55
2018-05-23T05:37:58.514Z,27.50
2018-05-23T05:38:29.719Z,27.51
2018-05-23T05:39:00.950Z,27.42
2018-05-23T05:39:32.178Z,27.44
2018-05-23T05:40:03.399Z,27.51
2018-05-23T05:40:34.613Z,27.50
2018-05-23T05:41:05.822Z,27.58
2018-05-23T05:41:37.032Z,27.54
2018-05-23T05:42:08.253Z,27.50
2018-05-23T05:42:39.591Z,27.47
2018-05-23T05:43:10.819Z,27.47
2018-05-23T05:43:42.038Z,27.42
2018-05-23T05:44:13.278Z,27.33
2018-05-23T05:44:44.532Z,27.08
2018-05-23T05:45:15.743Z,26.90
2018-05-23T05:45:46.951Z,26.88
2018-05-23T05:46:18.162Z,26.76
2018-05-23T05:46:49.384Z,26.68
2018-05-23T05:47:20.677Z,26.64
2018-05-23T05:47:51.987Z,26.57
2018-05-23T05:48:23.216Z,26.67
2018-05-23T05:48:54.440Z,26.68
2018-05-23T05:49:25.784Z,26.54
2018-05-23T05:49:56.988Z,26.51
2018-05-23T05:50:28.283Z,26.40
2018-05-23T05:50:59.506Z,26.35
2018-05-23T05:51:30.717Z,26.29
2018-05-23T05:52:01.931Z,25.87
2018-05-23T05:52:33.158Z,26.21
2018-05-23T05:53:04.429Z,26.08
2018-05-23T05:53:36.334Z,26.03
2018-05-23T05:54:07.470Z,25.98
2018-05-23T05:54:38.687Z,25.89
2018-05-23T05:55:09.913Z,25.82
2018-05-23T05:55:41.149Z,25.73
2018-05-23T05:56:12.420Z,25.71
2018-05-23T05:56:43.646Z,25.70
2018-05-23T05:57:51.012Z,25.50
2018-05-23T05:58:22.277Z,25.47
2018-05-23T05:58:53.518Z,25.50
2018-05-23T05:59:25.778Z,25.48
2018-05-23T05:59:57.090Z,25.52
2018-05-23T06:00:28.346Z,25.52
2018-05-23T06:00:59.613Z,25.45
2018-05-23T06:01:31.539Z,25.58
2018-05-23T06:02:02.782Z,25.58
2018-05-23T06:02:34.045Z,25.47
2018-05-23T06:03:05.266Z,25.42
2018-05-23T06:03:36.648Z,25.34
2018-05-23T06:04:07.885Z,25.33
2018-05-23T06:04:39.129Z,25.27
2018-05-23T06:05:10.353Z,25.22
2018-05-23T06:05:41.596Z,25.13
2018-05-23T06:06:12.810Z,25.18
2018-05-23T06:06:44.046Z,25.25
2018-05-23T06:07:15.319Z,25.35
2018-05-23T06:07:47.577Z,25.44
2018-05-23T06:08:18.823Z,25.39
2018-05-23T06:08:50.611Z,25.39
2018-05-23T06:09:21.920Z,25.38
2018-05-23T06:09:53.184Z,25.32
2018-05-23T06:10:24.409Z,25.33
2018-05-23T06:10:55.637Z,25.33
2018-05-23T06:11:26.866Z,25.23
2018-05-23T06:11:58.077Z,25.01
2018-05-23T06:12:29.950Z,24.83
2018-05-23T06:13:01.178Z,24.72
2018-05-23T06:13:32.413Z,24.63
2018-05-23T06:14:03.626Z,24.58
2018-05-23T06:14:34.906Z,24.48
2018-05-23T06:15:07.036Z,24.41
2018-05-23T06:15:38.288Z,24.36
2018-05-23T06:16:09.577Z,24.27
2018-05-23T06:16:40.805Z,24.12
2018-05-23T06:17:12.044Z,24.05
2018-05-23T06:17:43.266Z,24.05
2018-05-23T06:18:14.534Z,23.93
2018-05-23T06:18:45.785Z,23.69
2018-05-23T06:19:17.013Z,23.57
2018-05-23T06:19:48.233Z,23.55
2018-05-23T06:20:19.486Z,23.65
2018-05-23T06:20:58.301Z,23.66
2018-05-23T06:21:29.557Z,23.72
2018-05-23T06:22:00.855Z,23.81
2018-05-23T06:22:32.139Z,23.88
2018-05-23T06:23:03.381Z,23.87
2018-05-23T06:23:34.611Z,23.91
2018-05-23T06:24:05.847Z,23.95
2018-05-23T06:24:37.101Z,24.03
2018-05-23T06:25:08.321Z,24.07
2018-05-23T06:25:39.573Z,23.99
2018-05-23T06:26:10.800Z,23.68
2018-05-23T06:26:42.062Z,23.54
2018-05-23T06:27:13.329Z,23.59
2018-05-23T06:27:44.549Z,23.64
2018-05-23T06:28:15.852Z,23.73
2018-05-23T06:28:47.086Z,23.74
2018-05-23T06:29:18.312Z,23.74
2018-05-23T06:29:49.549Z,23.72
2018-05-23T06:30:20.852Z,23.61
2018-05-23T06:30:52.038Z,23.63
2018-05-23T06:31:23.254Z,23.71
2018-05-23T06:31:54.541Z,23.73
2018-05-23T06:32:25.791Z,23.79
2018-05-23T06:32:57.109Z,23.76
2018-05-23T06:33:28.336Z,23.90
2018-05-23T06:33:59.558Z,23.96
2018-05-23T06:34:30.847Z,24.05
2018-05-23T06:35:02.065Z,24.02
2018-05-23T06:35:33.282Z,24.04
2018-05-23T06:36:04.497Z,24.07
2018-05-23T06:36:35.738Z,24.15
2018-05-23T06:37:06.965Z,24.22
2018-05-23T06:37:38.206Z,24.29
2018-05-23T06:38:09.432Z,24.30
2018-05-23T06:38:40.663Z,24.34
2018-05-23T06:39:11.878Z,24.38
2018-05-23T06:39:43.159Z,24.35
2018-05-23T06:40:14.408Z,24.36
2018-05-23T06:40:45.660Z,24.37
2018-05-23T06:41:16.954Z,24.19
2018-05-23T06:41:48.104Z,23.98
2018-05-23T06:42:19.337Z,23.85
2018-05-23T06:42:50.553Z,23.79
2018-05-23T06:43:22.774Z,23.71
2018-05-23T06:43:54.028Z,23.73